Overview Statistics Trail Chart Weather Telemetry Raw packets
 

This is the latest recevied weather packets stored in our database for station/object KI4KWR-1. If no packets are shown the sender has not sent any weather packets the latest 10 day(s).

<< 16 17 18 19 20 21 22 >>
Time Temp. Humidity Pressure Rain* Wind** Luminosity Snow
1788232503 23.89° C 85% 989.9 hPa 0 mm - - -
1788231604 23.89° C 84% 989.9 hPa 0 mm - - -
1788230704 24.44° C 82% 989.8 hPa 0 mm - - -
1788229804 24.44° C 83% 989.8 hPa 0 mm - - -
1788228904 25° C 82% 989.8 hPa 0 mm - - -
1788228004 25° C 81% 989.5 hPa 0 mm - - -
1788227104 25.56° C 79% 989.4 hPa 0 mm - - -
1788226204 25.56° C 78% 989.4 hPa 0 mm - - -
1788225304 26.11° C 74% 989.3 hPa 0 mm - - -
1788224403 27.22° C 71% 989 hPa 0 mm - - -
1788223504 27.78° C 70% 988.8 hPa 0 mm - - -
1788222604 27.78° C 71% 988.9 hPa 0 mm - - -
1788221704 30° C 63% 988.8 hPa 0 mm - - -
1788220804 31.11° C 60% 988.7 hPa 0 mm - - -
1788219904 32.78° C 55% 988.9 hPa 0 mm - - -
1788219004 32.22° C 53% 989 hPa 0 mm - - -
1788218104 33.33° C 48% 989 hPa 0 mm - - -
1788217204 32.78° C 51% 989.2 hPa 0 mm - - -
1788216304 32.78° C 50% 989.1 hPa 0 mm - - -
1788215403 32.78° C 51% 989.2 hPa 0 mm - - -
1788214504 32.78° C 48% 989.2 hPa 0 mm - - -
1788213604 33.33° C 48% 989.4 hPa 0 mm - - -
1788212704 33.33° C 48% 989.4 hPa 0 mm - - -
1788211804 32.78° C 51% 989.4 hPa 0 mm - - -
1788210904 32.78° C 52% 989.5 hPa 0 mm - - -

* Rain latest hour (hover to see other rain measurements)
** Current wind speed in m/s (hover to see current wind gust speed)